sensor_id;sensor_type;location;lat;lon;timestamp;temperature;humidity
17918;DHT22;9084;50.956;3.106;2022-08-01T00:01:20;19.10;99.90
17918;DHT22;9084;50.956;3.106;2022-08-01T00:03:46;19.10;99.90
17918;DHT22;9084;50.956;3.106;2022-08-01T00:06:12;19.10;99.90
17918;DHT22;9084;50.956;3.106;2022-08-01T00:08:42;19.10;99.90
17918;DHT22;9084;50.956;3.106;2022-08-01T00:11:08;19.10;99.90
17918;DHT22;9084;50.956;3.106;2022-08-01T00:13:34;19.00;99.90
17918;DHT22;9084;50.956;3.106;2022-08-01T00:16:03;19.00;99.90
17918;DHT22;9084;50.956;3.106;2022-08-01T00:18:29;19.00;99.90
17918;DHT22;9084;50.956;3.106;2022-08-01T00:20:57;19.00;99.90
17918;DHT22;9084;50.956;3.106;2022-08-01T00:23:24;19.00;99.90
17918;DHT22;9084;50.956;3.106;2022-08-01T00:25:50;19.00;99.90
17918;DHT22;9084;50.956;3.106;2022-08-01T00:28:16;18.90;99.90
17918;DHT22;9084;50.956;3.106;2022-08-01T00:30:42;19.00;99.90
17918;DHT22;9084;50.956;3.106;2022-08-01T00:33:07;18.90;99.90
17918;DHT22;9084;50.956;3.106;2022-08-01T00:35:34;18.90;99.90
17918;DHT22;9084;50.956;3.106;2022-08-01T00:37:59;18.90;99.90
17918;DHT22;9084;50.956;3.106;2022-08-01T00:40:28;18.90;99.90
17918;DHT22;9084;50.956;3.106;2022-08-01T00:42:56;18.80;99.90
17918;DHT22;9084;50.956;3.106;2022-08-01T00:45:25;18.80;99.90
17918;DHT22;9084;50.956;3.106;2022-08-01T00:47:53;18.90;99.90
17918;DHT22;9084;50.956;3.106;2022-08-01T00:50:19;18.90;99.90
17918;DHT22;9084;50.956;3.106;2022-08-01T00:52:47;18.90;99.90
17918;DHT22;9084;50.956;3.106;2022-08-01T00:55:13;18.90;99.90
17918;DHT22;9084;50.956;3.106;2022-08-01T00:57:39;18.90;99.90
17918;DHT22;9084;50.956;3.106;2022-08-01T01:00:09;18.80;99.90
17918;DHT22;9084;50.956;3.106;2022-08-01T01:02:35;18.80;99.90
17918;DHT22;9084;50.956;3.106;2022-08-01T01:05:02;18.90;99.90
17918;DHT22;9084;50.956;3.106;2022-08-01T01:07:36;18.80;99.90
17918;DHT22;9084;50.956;3.106;2022-08-01T01:10:25;18.80;99.90
17918;DHT22;9084;50.956;3.106;2022-08-01T01:13:02;18.70;99.90
17918;DHT22;9084;50.956;3.106;2022-08-01T01:15:41;18.60;99.90
17918;DHT22;9084;50.956;3.106;2022-08-01T01:18:11;18.60;99.90
17918;DHT22;9084;50.956;3.106;2022-08-01T01:20:45;18.60;99.90
17918;DHT22;9084;50.956;3.106;2022-08-01T01:31:44;18.60;99.90
17918;DHT22;9084;50.956;3.106;2022-08-01T01:34:17;18.60;99.90
17918;DHT22;9084;50.956;3.106;2022-08-01T01:36:48;18.60;99.90
17918;DHT22;9084;50.956;3.106;2022-08-01T01:39:15;18.60;99.90
17918;DHT22;9084;50.956;3.106;2022-08-01T01:41:45;18.60;99.90
17918;DHT22;9084;50.956;3.106;2022-08-01T01:44:13;18.60;99.90
17918;DHT22;9084;50.956;3.106;2022-08-01T01:46:40;18.70;99.90
17918;DHT22;9084;50.956;3.106;2022-08-01T01:49:10;18.70;99.90
17918;DHT22;9084;50.956;3.106;2022-08-01T01:51:38;18.70;99.90
17918;DHT22;9084;50.956;3.106;2022-08-01T01:54:05;18.70;99.90
17918;DHT22;9084;50.956;3.106;2022-08-01T01:56:32;18.70;99.90
17918;DHT22;9084;50.956;3.106;2022-08-01T01:59:02;18.70;99.90
17918;DHT22;9084;50.956;3.106;2022-08-01T02:01:31;18.70;99.90
17918;DHT22;9084;50.956;3.106;2022-08-01T02:03:59;18.70;99.90
17918;DHT22;9084;50.956;3.106;2022-08-01T02:06:30;18.70;99.90
17918;DHT22;9084;50.956;3.106;2022-08-01T02:08:57;18.60;99.90
17918;DHT22;9084;50.956;3.106;2022-08-01T02:11:24;18.70;99.90
17918;DHT22;9084;50.956;3.106;2022-08-01T02:14:02;18.70;99.90
17918;DHT22;9084;50.956;3.106;2022-08-01T02:16:35;18.70;99.90
17918;DHT22;9084;50.956;3.106;2022-08-01T02:19:07;18.70;99.90
17918;DHT22;9084;50.956;3.106;2022-08-01T02:21:44;18.70;99.90
17918;DHT22;9084;50.956;3.106;2022-08-01T02:24:50;18.70;99.90
17918;DHT22;9084;50.956;3.106;2022-08-01T02:27:33;18.70;99.90
17918;DHT22;9084;50.956;3.106;2022-08-01T02:30:03;18.70;99.90
17918;DHT22;9084;50.956;3.106;2022-08-01T02:32:37;18.70;99.90
17918;DHT22;9084;50.956;3.106;2022-08-01T02:35:07;18.70;99.90
17918;DHT22;9084;50.956;3.106;2022-08-01T02:37:39;18.60;99.90
17918;DHT22;9084;50.956;3.106;2022-08-01T02:40:10;18.70;99.90
17918;DHT22;9084;50.956;3.106;2022-08-01T02:42:43;18.60;99.90
17918;DHT22;9084;50.956;3.106;2022-08-01T02:45:13;18.60;99.90
17918;DHT22;9084;50.956;3.106;2022-08-01T02:48:07;18.60;99.90
17918;DHT22;9084;50.956;3.106;2022-08-01T02:50:36;18.60;99.90
17918;DHT22;9084;50.956;3.106;2022-08-01T02:53:04;18.60;99.90
17918;DHT22;9084;50.956;3.106;2022-08-01T02:55:32;18.70;99.90
17918;DHT22;9084;50.956;3.106;2022-08-01T02:58:00;18.70;99.90
17918;DHT22;9084;50.956;3.106;2022-08-01T03:00:30;18.70;99.90
17918;DHT22;9084;50.956;3.106;2022-08-01T03:02:57;18.80;99.90
17918;DHT22;9084;50.956;3.106;2022-08-01T03:05:24;18.80;99.90
17918;DHT22;9084;50.956;3.106;2022-08-01T03:07:52;18.80;99.90
17918;DHT22;9084;50.956;3.106;2022-08-01T03:10:19;18.80;99.90
17918;DHT22;9084;50.956;3.106;2022-08-01T03:12:48;18.80;99.90
17918;DHT22;9084;50.956;3.106;2022-08-01T03:15:18;18.80;99.90
17918;DHT22;9084;50.956;3.106;2022-08-01T03:17:45;18.70;99.90
17918;DHT22;9084;50.956;3.106;2022-08-01T03:20:14;18.70;99.90
17918;DHT22;9084;50.956;3.106;2022-08-01T03:22:42;18.70;99.90
17918;DHT22;9084;50.956;3.106;2022-08-01T03:25:09;18.70;99.90
17918;DHT22;9084;50.956;3.106;2022-08-01T03:27:36;18.70;99.90
17918;DHT22;9084;50.956;3.106;2022-08-01T03:30:06;18.70;99.90
17918;DHT22;9084;50.956;3.106;2022-08-01T03:32:34;18.70;99.90
17918;DHT22;9084;50.956;3.106;2022-08-01T03:35:05;18.70;99.90
17918;DHT22;9084;50.956;3.106;2022-08-01T03:37:44;18.70;99.90
17918;DHT22;9084;50.956;3.106;2022-08-01T03:40:57;18.80;99.90
17918;DHT22;9084;50.956;3.106;2022-08-01T03:43:19;18.80;99.90
17918;DHT22;9084;50.956;3.106;2022-08-01T03:45:51;18.80;99.90
17918;DHT22;9084;50.956;3.106;2022-08-01T03:48:19;18.80;99.90
17918;DHT22;9084;50.956;3.106;2022-08-01T03:50:50;18.80;99.90
17918;DHT22;9084;50.956;3.106;2022-08-01T03:53:24;18.80;99.90
17918;DHT22;9084;50.956;3.106;2022-08-01T03:55:52;18.80;99.90
17918;DHT22;9084;50.956;3.106;2022-08-01T03:58:20;18.80;99.90
17918;DHT22;9084;50.956;3.106;2022-08-01T04:00:47;18.80;99.90
17918;DHT22;9084;50.956;3.106;2022-08-01T04:03:14;18.80;99.90
17918;DHT22;9084;50.956;3.106;2022-08-01T04:05:41;18.80;99.90
17918;DHT22;9084;50.956;3.106;2022-08-01T04:08:08;18.70;99.90
17918;DHT22;9084;50.956;3.106;2022-08-01T04:10:34;18.70;99.90
17918;DHT22;9084;50.956;3.106;2022-08-01T04:13:00;18.70;99.90
17918;DHT22;9084;50.956;3.106;2022-08-01T04:15:27;18.70;99.90
17918;DHT22;9084;50.956;3.106;2022-08-01T04:17:55;18.70;99.90
17918;DHT22;9084;50.956;3.106;2022-08-01T04:20:21;18.70;99.90
17918;DHT22;9084;50.956;3.106;2022-08-01T04:22:47;18.80;99.90
17918;DHT22;9084;50.956;3.106;2022-08-01T04:25:17;18.70;99.90
17918;DHT22;9084;50.956;3.106;2022-08-01T04:27:47;18.70;99.90
17918;DHT22;9084;50.956;3.106;2022-08-01T04:30:14;18.70;99.90
17918;DHT22;9084;50.956;3.106;2022-08-01T04:32:45;18.70;99.90
17918;DHT22;9084;50.956;3.106;2022-08-01T04:35:15;18.70;99.90
17918;DHT22;9084;50.956;3.106;2022-08-01T04:37:44;18.80;99.90
17918;DHT22;9084;50.956;3.106;2022-08-01T04:40:13;18.80;99.90
17918;DHT22;9084;50.956;3.106;2022-08-01T04:42:40;18.80;99.90
17918;DHT22;9084;50.956;3.106;2022-08-01T04:45:08;18.80;99.90
17918;DHT22;9084;50.956;3.106;2022-08-01T04:47:36;18.80;99.90
17918;DHT22;9084;50.956;3.106;2022-08-01T04:50:09;18.80;99.90
17918;DHT22;9084;50.956;3.106;2022-08-01T04:52:36;18.80;99.90
17918;DHT22;9084;50.956;3.106;2022-08-01T04:55:04;18.80;99.90
17918;DHT22;9084;50.956;3.106;2022-08-01T04:57:36;18.70;99.90
17918;DHT22;9084;50.956;3.106;2022-08-01T05:00:05;18.70;99.90
17918;DHT22;9084;50.956;3.106;2022-08-01T05:02:32;18.70;99.90
17918;DHT22;9084;50.956;3.106;2022-08-01T05:05:01;18.70;99.90
17918;DHT22;9084;50.956;3.106;2022-08-01T05:07:27;18.80;99.90
17918;DHT22;9084;50.956;3.106;2022-08-01T05:09:53;18.80;99.90
17918;DHT22;9084;50.956;3.106;2022-08-01T05:12:19;18.90;99.90
17918;DHT22;9084;50.956;3.106;2022-08-01T05:14:46;18.90;99.90
17918;DHT22;9084;50.956;3.106;2022-08-01T05:17:14;19.00;99.90
17918;DHT22;9084;50.956;3.106;2022-08-01T05:19:40;19.00;99.90
17918;DHT22;9084;50.956;3.106;2022-08-01T05:22:08;19.00;99.90
17918;DHT22;9084;50.956;3.106;2022-08-01T05:24:36;19.00;99.90
17918;DHT22;9084;50.956;3.106;2022-08-01T05:27:02;19.00;99.90
17918;DHT22;9084;50.956;3.106;2022-08-01T05:29:32;19.00;99.90
17918;DHT22;9084;50.956;3.106;2022-08-01T05:32:00;19.00;99.90
17918;DHT22;9084;50.956;3.106;2022-08-01T05:34:27;19.00;99.90
17918;DHT22;9084;50.956;3.106;2022-08-01T05:36:55;19.10;99.90
17918;DHT22;9084;50.956;3.106;2022-08-01T05:39:21;19.20;99.90
17918;DHT22;9084;50.956;3.106;2022-08-01T05:41:50;19.20;99.90
17918;DHT22;9084;50.956;3.106;2022-08-01T05:44:16;19.30;99.90
17918;DHT22;9084;50.956;3.106;2022-08-01T05:46:42;19.30;99.90
17918;DHT22;9084;50.956;3.106;2022-08-01T05:49:11;19.40;99.90
17918;DHT22;9084;50.956;3.106;2022-08-01T05:51:37;19.40;99.90
17918;DHT22;9084;50.956;3.106;2022-08-01T05:54:03;19.40;99.90
17918;DHT22;9084;50.956;3.106;2022-08-01T05:56:29;19.50;99.90
17918;DHT22;9084;50.956;3.106;2022-08-01T05:58:58;19.60;99.90
17918;DHT22;9084;50.956;3.106;2022-08-01T06:01:26;19.70;99.90
17918;DHT22;9084;50.956;3.106;2022-08-01T06:03:52;19.80;99.90
17918;DHT22;9084;50.956;3.106;2022-08-01T06:06:26;19.90;99.90
17918;DHT22;9084;50.956;3.106;2022-08-01T06:08:52;20.10;99.90
17918;DHT22;9084;50.956;3.106;2022-08-01T06:11:22;20.10;99.90
17918;DHT22;9084;50.956;3.106;2022-08-01T06:13:48;20.20;99.90
17918;DHT22;9084;50.956;3.106;2022-08-01T06:16:15;20.30;99.90
17918;DHT22;9084;50.956;3.106;2022-08-01T06:18:41;20.30;99.90
17918;DHT22;9084;50.956;3.106;2022-08-01T06:21:11;20.40;99.90
17918;DHT22;9084;50.956;3.106;2022-08-01T06:23:40;20.40;99.90
17918;DHT22;9084;50.956;3.106;2022-08-01T06:26:09;20.30;99.90
17918;DHT22;9084;50.956;3.106;2022-08-01T06:28:36;20.20;99.90
17918;DHT22;9084;50.956;3.106;2022-08-01T06:31:02;20.20;99.90
17918;DHT22;9084;50.956;3.106;2022-08-01T06:33:33;20.20;99.90
17918;DHT22;9084;50.956;3.106;2022-08-01T06:36:00;20.20;99.90
17918;DHT22;9084;50.956;3.106;2022-08-01T06:38:26;20.30;99.90
17918;DHT22;9084;50.956;3.106;2022-08-01T06:40:56;20.30;99.90
17918;DHT22;9084;50.956;3.106;2022-08-01T06:43:22;20.30;99.90
17918;DHT22;9084;50.956;3.106;2022-08-01T06:45:50;20.20;99.90
17918;DHT22;9084;50.956;3.106;2022-08-01T06:48:16;20.20;99.90
17918;DHT22;9084;50.956;3.106;2022-08-01T06:50:43;20.30;99.90
17918;DHT22;9084;50.956;3.106;2022-08-01T06:53:09;20.40;99.90
17918;DHT22;9084;50.956;3.106;2022-08-01T06:55:35;20.40;99.90
17918;DHT22;9084;50.956;3.106;2022-08-01T06:58:01;20.40;99.90
17918;DHT22;9084;50.956;3.106;2022-08-01T07:00:27;20.40;99.90
17918;DHT22;9084;50.956;3.106;2022-08-01T07:02:57;20.40;99.90
17918;DHT22;9084;50.956;3.106;2022-08-01T07:05:27;20.60;99.90
17918;DHT22;9084;50.956;3.106;2022-08-01T07:07:56;20.70;99.90
17918;DHT22;9084;50.956;3.106;2022-08-01T07:10:22;20.80;99.90
17918;DHT22;9084;50.956;3.106;2022-08-01T07:12:48;20.90;99.90
17918;DHT22;9084;50.956;3.106;2022-08-01T07:15:14;21.00;99.40
17918;DHT22;9084;50.956;3.106;2022-08-01T07:17:41;21.10;99.90
17918;DHT22;9084;50.956;3.106;2022-08-01T07:20:12;21.30;94.60
17918;DHT22;9084;50.956;3.106;2022-08-01T07:22:38;21.40;81.20
17918;DHT22;9084;50.956;3.106;2022-08-01T07:25:09;21.50;78.10
17918;DHT22;9084;50.956;3.106;2022-08-01T07:27:40;21.50;68.30
17918;DHT22;9084;50.956;3.106;2022-08-01T07:30:12;21.40;68.60
17918;DHT22;9084;50.956;3.106;2022-08-01T07:32:40;21.40;71.30
17918;DHT22;9084;50.956;3.106;2022-08-01T07:35:06;21.30;79.10
17918;DHT22;9084;50.956;3.106;2022-08-01T07:37:35;21.40;68.50
17918;DHT22;9084;50.956;3.106;2022-08-01T07:40:04;21.50;63.20
17918;DHT22;9084;50.956;3.106;2022-08-01T07:42:32;21.60;62.40
17918;DHT22;9084;50.956;3.106;2022-08-01T07:45:00;21.80;60.20
17918;DHT22;9084;50.956;3.106;2022-08-01T07:47:27;21.90;55.40
17918;DHT22;9084;50.956;3.106;2022-08-01T07:49:59;22.00;47.70
17918;DHT22;9084;50.956;3.106;2022-08-01T07:52:28;21.90;37.40
17918;DHT22;9084;50.956;3.106;2022-08-01T07:54:58;22.00;44.80
17918;DHT22;9084;50.956;3.106;2022-08-01T07:57:27;22.10;32.80
17918;DHT22;9084;50.956;3.106;2022-08-01T07:59:53;22.10;31.40
17918;DHT22;9084;50.956;3.106;2022-08-01T08:02:19;22.20;19.30
17918;DHT22;9084;50.956;3.106;2022-08-01T08:04:47;22.40;18.30
17918;DHT22;9084;50.956;3.106;2022-08-01T08:07:15;22.50;18.90
17918;DHT22;9084;50.956;3.106;2022-08-01T08:09:41;22.50;19.10
17918;DHT22;9084;50.956;3.106;2022-08-01T08:12:10;22.80;18.80
17918;DHT22;9084;50.956;3.106;2022-08-01T08:14:37;22.90;16.60
17918;DHT22;9084;50.956;3.106;2022-08-01T08:17:03;23.10;12.90
17918;DHT22;9084;50.956;3.106;2022-08-01T08:19:30;23.20;6.40
17918;DHT22;9084;50.956;3.106;2022-08-01T08:21:58;23.40;1.00
17918;DHT22;9084;50.956;3.106;2022-08-01T08:24:24;23.50;1.00
17918;DHT22;9084;50.956;3.106;2022-08-01T08:27:15;23.60;1.00
17918;DHT22;9084;50.956;3.106;2022-08-01T08:29:41;23.60;1.00
17918;DHT22;9084;50.956;3.106;2022-08-01T08:32:07;23.40;1.00
17918;DHT22;9084;50.956;3.106;2022-08-01T08:34:37;23.30;1.00
17918;DHT22;9084;50.956;3.106;2022-08-01T08:37:04;23.00;5.00
17918;DHT22;9084;50.956;3.106;2022-08-01T08:39:30;22.80;10.30
17918;DHT22;9084;50.956;3.106;2022-08-01T08:42:00;22.70;9.70
17918;DHT22;9084;50.956;3.106;2022-08-01T08:44:30;22.80;9.80
17918;DHT22;9084;50.956;3.106;2022-08-01T08:46:57;23.00;4.10
17918;DHT22;9084;50.956;3.106;2022-08-01T08:49:28;23.00;3.20
17918;DHT22;9084;50.956;3.106;2022-08-01T08:51:59;23.00;1.00
17918;DHT22;9084;50.956;3.106;2022-08-01T08:54:26;23.00;1.00
17918;DHT22;9084;50.956;3.106;2022-08-01T08:56:54;23.00;1.00
17918;DHT22;9084;50.956;3.106;2022-08-01T08:59:21;22.90;1.00
17918;DHT22;9084;50.956;3.106;2022-08-01T09:01:47;23.00;1.00
17918;DHT22;9084;50.956;3.106;2022-08-01T09:04:14;23.10;1.00
17918;DHT22;9084;50.956;3.106;2022-08-01T09:06:40;23.30;1.00
17918;DHT22;9084;50.956;3.106;2022-08-01T09:09:06;23.40;1.00
17918;DHT22;9084;50.956;3.106;2022-08-01T09:11:33;23.50;1.00
17918;DHT22;9084;50.956;3.106;2022-08-01T09:14:15;23.50;1.00
17918;DHT22;9084;50.956;3.106;2022-08-01T09:17:02;23.70;1.00
17918;DHT22;9084;50.956;3.106;2022-08-01T09:19:52;23.70;1.00
17918;DHT22;9084;50.956;3.106;2022-08-01T09:22:20;23.90;1.00
17918;DHT22;9084;50.956;3.106;2022-08-01T09:27:24;24.00;1.00
17918;DHT22;9084;50.956;3.106;2022-08-01T09:29:52;24.00;1.00
17918;DHT22;9084;50.956;3.106;2022-08-01T09:32:19;23.90;1.00
17918;DHT22;9084;50.956;3.106;2022-08-01T09:34:45;23.90;1.00
17918;DHT22;9084;50.956;3.106;2022-08-01T09:37:14;24.10;1.00
17918;DHT22;9084;50.956;3.106;2022-08-01T09:39:43;24.20;1.00
17918;DHT22;9084;50.956;3.106;2022-08-01T09:42:26;24.30;1.00
17918;DHT22;9084;50.956;3.106;2022-08-01T09:44:52;24.40;1.00
17918;DHT22;9084;50.956;3.106;2022-08-01T09:47:19;24.40;1.00
17918;DHT22;9084;50.956;3.106;2022-08-01T09:49:56;24.50;1.00
17918;DHT22;9084;50.956;3.106;2022-08-01T09:52:24;24.60;1.00
17918;DHT22;9084;50.956;3.106;2022-08-01T09:54:55;24.70;1.00
17918;DHT22;9084;50.956;3.106;2022-08-01T09:57:22;24.80;1.00
17918;DHT22;9084;50.956;3.106;2022-08-01T09:59:51;24.90;1.00
17918;DHT22;9084;50.956;3.106;2022-08-01T10:02:35;24.80;1.00
17918;DHT22;9084;50.956;3.106;2022-08-01T10:05:04;24.80;1.00
17918;DHT22;9084;50.956;3.106;2022-08-01T10:07:31;24.70;1.00
17918;DHT22;9084;50.956;3.106;2022-08-01T10:10:10;24.70;1.00
17918;DHT22;9084;50.956;3.106;2022-08-01T10:12:36;24.90;1.00
17918;DHT22;9084;50.956;3.106;2022-08-01T10:15:03;25.10;1.00
17918;DHT22;9084;50.956;3.106;2022-08-01T10:17:30;25.00;1.00
17918;DHT22;9084;50.956;3.106;2022-08-01T10:19:56;25.20;1.00
17918;DHT22;9084;50.956;3.106;2022-08-01T10:22:25;25.10;1.00
17918;DHT22;9084;50.956;3.106;2022-08-01T10:24:55;25.10;1.00
17918;DHT22;9084;50.956;3.106;2022-08-01T10:27:21;25.30;1.00
17918;DHT22;9084;50.956;3.106;2022-08-01T10:29:59;25.40;1.00
17918;DHT22;9084;50.956;3.106;2022-08-01T10:32:35;25.50;1.00
17918;DHT22;9084;50.956;3.106;2022-08-01T10:35:05;25.60;1.00
17918;DHT22;9084;50.956;3.106;2022-08-01T10:37:34;25.80;1.00
17918;DHT22;9084;50.956;3.106;2022-08-01T10:40:03;26.00;1.00
17918;DHT22;9084;50.956;3.106;2022-08-01T10:42:34;26.10;1.00
17918;DHT22;9084;50.956;3.106;2022-08-01T10:45:00;26.20;1.00
17918;DHT22;9084;50.956;3.106;2022-08-01T10:47:35;26.20;1.00
17918;DHT22;9084;50.956;3.106;2022-08-01T10:50:07;26.20;1.00
17918;DHT22;9084;50.956;3.106;2022-08-01T10:52:42;26.20;1.00
17918;DHT22;9084;50.956;3.106;2022-08-01T10:55:28;26.30;1.00
17918;DHT22;9084;50.956;3.106;2022-08-01T10:57:54;26.30;1.00
17918;DHT22;9084;50.956;3.106;2022-08-01T11:00:21;26.40;1.00
17918;DHT22;9084;50.956;3.106;2022-08-01T11:03:01;26.60;1.00
17918;DHT22;9084;50.956;3.106;2022-08-01T11:05:32;26.90;1.00
17918;DHT22;9084;50.956;3.106;2022-08-01T11:08:01;27.20;1.00
17918;DHT22;9084;50.956;3.106;2022-08-01T11:13:00;27.50;1.00
17918;DHT22;9084;50.956;3.106;2022-08-01T11:15:29;27.50;99.90
17918;DHT22;9084;50.956;3.106;2022-08-01T11:17:58;27.50;1.00
17918;DHT22;9084;50.956;3.106;2022-08-01T11:20:31;27.40;1.00
17918;DHT22;9084;50.956;3.106;2022-08-01T11:33:16;26.50;1.00
17918;DHT22;9084;50.956;3.106;2022-08-01T11:41:29;26.40;1.00
17918;DHT22;9084;50.956;3.106;2022-08-01T11:44:12;26.70;1.00
17918;DHT22;9084;50.956;3.106;2022-08-01T11:47:00;26.80;99.90
17918;DHT22;9084;50.956;3.106;2022-08-01T11:52:11;27.10;99.90
17918;DHT22;9084;50.956;3.106;2022-08-01T11:54:39;27.10;99.90
17918;DHT22;9084;50.956;3.106;2022-08-01T11:57:19;27.10;99.90
17918;DHT22;9084;50.956;3.106;2022-08-01T11:59:52;27.30;99.90
17918;DHT22;9084;50.956;3.106;2022-08-01T12:04:52;27.30;77.70
17918;DHT22;9084;50.956;3.106;2022-08-01T12:07:19;27.10;99.90
17918;DHT22;9084;50.956;3.106;2022-08-01T12:09:46;27.00;1.00
17918;DHT22;9084;50.956;3.106;2022-08-01T12:12:15;26.80;76.50
17918;DHT22;9084;50.956;3.106;2022-08-01T12:14:43;26.50;99.90
17918;DHT22;9084;50.956;3.106;2022-08-01T12:17:09;26.40;99.90
17918;DHT22;9084;50.956;3.106;2022-08-01T12:19:35;26.30;99.90
17918;DHT22;9084;50.956;3.106;2022-08-01T12:22:22;26.40;99.90
17918;DHT22;9084;50.956;3.106;2022-08-01T12:24:48;26.60;99.90
17918;DHT22;9084;50.956;3.106;2022-08-01T12:27:25;26.70;17.80
17918;DHT22;9084;50.956;3.106;2022-08-01T12:29:54;26.80;99.90
17918;DHT22;9084;50.956;3.106;2022-08-01T12:32:31;26.60;1.00
17918;DHT22;9084;50.956;3.106;2022-08-01T12:35:06;26.50;99.90
17918;DHT22;9084;50.956;3.106;2022-08-01T12:37:40;26.70;1.00
17918;DHT22;9084;50.956;3.106;2022-08-01T12:40:13;27.10;1.00
17918;DHT22;9084;50.956;3.106;2022-08-01T12:42:43;27.40;94.20
17918;DHT22;9084;50.956;3.106;2022-08-01T12:45:13;27.50;99.90
17918;DHT22;9084;50.956;3.106;2022-08-01T12:47:42;27.70;99.90
17918;DHT22;9084;50.956;3.106;2022-08-01T12:50:12;27.80;1.00
17918;DHT22;9084;50.956;3.106;2022-08-01T12:52:42;28.00;1.00
17918;DHT22;9084;50.956;3.106;2022-08-01T12:55:14;28.20;1.00
17918;DHT22;9084;50.956;3.106;2022-08-01T12:57:43;28.30;48.90
17918;DHT22;9084;50.956;3.106;2022-08-01T13:00:21;28.20;1.00
17918;DHT22;9084;50.956;3.106;2022-08-01T13:03:04;28.10;1.00
17918;DHT22;9084;50.956;3.106;2022-08-01T13:05:50;27.90;1.00
17918;DHT22;9084;50.956;3.106;2022-08-01T13:10:50;27.80;99.90
17918;DHT22;9084;50.956;3.106;2022-08-01T13:13:17;27.80;1.00
17918;DHT22;9084;50.956;3.106;2022-08-01T13:16:03;27.80;1.00
17918;DHT22;9084;50.956;3.106;2022-08-01T13:18:34;27.90;99.90
17918;DHT22;9084;50.956;3.106;2022-08-01T13:23:37;28.50;59.40
17918;DHT22;9084;50.956;3.106;2022-08-01T13:26:04;28.70;1.00
17918;DHT22;9084;50.956;3.106;2022-08-01T13:28:30;28.10;99.90
17918;DHT22;9084;50.956;3.106;2022-08-01T13:31:03;28.20;99.90
17918;DHT22;9084;50.956;3.106;2022-08-01T13:33:44;28.30;1.00
17918;DHT22;9084;50.956;3.106;2022-08-01T13:36:14;28.40;1.00
17918;DHT22;9084;50.956;3.106;2022-08-01T13:38:42;28.30;1.00
17918;DHT22;9084;50.956;3.106;2022-08-01T13:41:34;28.40;1.00
17918;DHT22;9084;50.956;3.106;2022-08-01T13:44:00;28.40;1.00
17918;DHT22;9084;50.956;3.106;2022-08-01T13:46:25;28.20;1.00
17918;DHT22;9084;50.956;3.106;2022-08-01T13:48:51;27.90;99.90
17918;DHT22;9084;50.956;3.106;2022-08-01T13:51:17;27.50;1.00
17918;DHT22;9084;50.956;3.106;2022-08-01T13:53:50;27.50;1.00
17918;DHT22;9084;50.956;3.106;2022-08-01T13:56:22;27.60;4.20
17918;DHT22;9084;50.956;3.106;2022-08-01T13:58:48;27.80;1.00
17918;DHT22;9084;50.956;3.106;2022-08-01T14:01:14;27.90;1.00
17918;DHT22;9084;50.956;3.106;2022-08-01T14:03:40;28.20;1.00
17918;DHT22;9084;50.956;3.106;2022-08-01T14:06:08;28.40;1.00
17918;DHT22;9084;50.956;3.106;2022-08-01T14:08:36;28.60;1.00
17918;DHT22;9084;50.956;3.106;2022-08-01T14:11:02;28.80;1.00
17918;DHT22;9084;50.956;3.106;2022-08-01T14:13:28;28.80;99.90
17918;DHT22;9084;50.956;3.106;2022-08-01T14:15:56;28.90;99.90
17918;DHT22;9084;50.956;3.106;2022-08-01T14:18:22;29.10;1.00
17918;DHT22;9084;50.956;3.106;2022-08-01T14:20:47;29.10;1.00
17918;DHT22;9084;50.956;3.106;2022-08-01T14:23:17;29.10;99.90
17918;DHT22;9084;50.956;3.106;2022-08-01T14:25:42;28.90;1.00
17918;DHT22;9084;50.956;3.106;2022-08-01T14:28:13;29.00;1.00
17918;DHT22;9084;50.956;3.106;2022-08-01T14:30:39;29.00;1.00
17918;DHT22;9084;50.956;3.106;2022-08-01T14:33:08;28.90;1.00
17918;DHT22;9084;50.956;3.106;2022-08-01T14:35:34;28.80;1.00
17918;DHT22;9084;50.956;3.106;2022-08-01T14:38:00;28.90;1.00
17918;DHT22;9084;50.956;3.106;2022-08-01T14:40:25;28.60;1.00
17918;DHT22;9084;50.956;3.106;2022-08-01T14:42:52;28.40;1.00
17918;DHT22;9084;50.956;3.106;2022-08-01T14:45:18;28.60;1.00
17918;DHT22;9084;50.956;3.106;2022-08-01T14:47:44;28.80;99.90
17918;DHT22;9084;50.956;3.106;2022-08-01T14:50:12;29.00;1.00
17918;DHT22;9084;50.956;3.106;2022-08-01T14:52:39;29.10;1.00
17918;DHT22;9084;50.956;3.106;2022-08-01T14:55:07;29.10;84.00
17918;DHT22;9084;50.956;3.106;2022-08-01T14:57:34;29.20;1.00
17918;DHT22;9084;50.956;3.106;2022-08-01T15:00:04;29.10;1.00
17918;DHT22;9084;50.956;3.106;2022-08-01T15:02:33;29.10;73.10
17918;DHT22;9084;50.956;3.106;2022-08-01T15:05:02;29.10;1.00
17918;DHT22;9084;50.956;3.106;2022-08-01T15:07:30;29.10;1.00
17918;DHT22;9084;50.956;3.106;2022-08-01T15:09:57;29.00;99.90
17918;DHT22;9084;50.956;3.106;2022-08-01T15:12:23;28.80;99.90
17918;DHT22;9084;50.956;3.106;2022-08-01T15:14:51;28.60;99.90
17918;DHT22;9084;50.956;3.106;2022-08-01T15:17:21;28.30;99.90
17918;DHT22;9084;50.956;3.106;2022-08-01T15:19:48;28.60;99.90
17918;DHT22;9084;50.956;3.106;2022-08-01T15:22:19;28.10;99.90
17918;DHT22;9084;50.956;3.106;2022-08-01T15:24:50;28.00;1.00
17918;DHT22;9084;50.956;3.106;2022-08-01T15:27:16;27.90;1.00
17918;DHT22;9084;50.956;3.106;2022-08-01T15:29:43;28.00;1.00
17918;DHT22;9084;50.956;3.106;2022-08-01T15:32:08;28.10;1.00
17918;DHT22;9084;50.956;3.106;2022-08-01T15:34:36;28.30;52.30
17918;DHT22;9084;50.956;3.106;2022-08-01T15:37:03;28.40;1.00
17918;DHT22;9084;50.956;3.106;2022-08-01T15:39:29;28.40;1.00
17918;DHT22;9084;50.956;3.106;2022-08-01T15:42:05;28.40;1.00
17918;DHT22;9084;50.956;3.106;2022-08-01T15:44:32;28.30;1.00
17918;DHT22;9084;50.956;3.106;2022-08-01T15:46:59;27.90;27.40
17918;DHT22;9084;50.956;3.106;2022-08-01T15:49:30;27.70;1.00
17918;DHT22;9084;50.956;3.106;2022-08-01T15:51:56;27.70;99.90
17918;DHT22;9084;50.956;3.106;2022-08-01T15:54:22;27.70;99.90
17918;DHT22;9084;50.956;3.106;2022-08-01T15:56:51;27.50;1.00
17918;DHT22;9084;50.956;3.106;2022-08-01T15:59:19;27.60;1.00
17918;DHT22;9084;50.956;3.106;2022-08-01T16:01:47;27.50;1.00
17918;DHT22;9084;50.956;3.106;2022-08-01T16:04:14;27.70;1.00
17918;DHT22;9084;50.956;3.106;2022-08-01T16:06:40;27.90;99.90
17918;DHT22;9084;50.956;3.106;2022-08-01T16:09:09;28.00;1.00
17918;DHT22;9084;50.956;3.106;2022-08-01T16:11:35;28.10;1.00
17918;DHT22;9084;50.956;3.106;2022-08-01T16:14:01;28.10;99.90
17918;DHT22;9084;50.956;3.106;2022-08-01T16:16:27;28.20;99.90
17918;DHT22;9084;50.956;3.106;2022-08-01T16:18:57;28.10;94.40
17918;DHT22;9084;50.956;3.106;2022-08-01T16:21:23;27.80;99.90
17918;DHT22;9084;50.956;3.106;2022-08-01T16:23:51;27.70;1.00
17918;DHT22;9084;50.956;3.106;2022-08-01T16:26:18;27.70;1.00
17918;DHT22;9084;50.956;3.106;2022-08-01T16:28:43;27.20;1.00
17918;DHT22;9084;50.956;3.106;2022-08-01T16:31:15;27.10;1.00
17918;DHT22;9084;50.956;3.106;2022-08-01T16:33:41;27.00;99.90
17918;DHT22;9084;50.956;3.106;2022-08-01T16:36:10;26.80;1.00
17918;DHT22;9084;50.956;3.106;2022-08-01T16:38:36;26.80;99.90
17918;DHT22;9084;50.956;3.106;2022-08-01T16:41:04;26.60;88.90
17918;DHT22;9084;50.956;3.106;2022-08-01T16:43:34;26.50;24.10
17918;DHT22;9084;50.956;3.106;2022-08-01T16:46:01;26.60;1.00